ADDS METAR Data INFO
IDs: Format: Raw Decoded Include TAF

Data at: 0852 UTC 22 Feb 2018

KASD 220753Z AUTO 15004KT 8SM BKN007 OVC019 22/22 A3025 RMK AO2 SLP244 T02220217
KASD 220653Z AUTO 16007KT 8SM SCT007 OVC025 23/22 A3026 RMK AO2 SLP246 T02280217
KASD 220646Z AUTO 15007KT 8SM SCT007 OVC024 23/22 A3026 RMK AO2 T02280217
KASD 220622Z AUTO 16008KT 8SM BKN007 BKN016 OVC022 23/22 A3025 RMK AO2 T02280217
KASD 220606Z AUTO 16009KT 8SM SCT007 BKN016 OVC021 23/22 A3026 RMK AO2 T02280217
KASD 220553Z AUTO 15009KT 8SM BKN007 OVC016 23/22 A3026 RMK AO2 SLP246 T02280217 10250 20228 402830217 51006
KASD 220507Z AUTO 16009KT 7SM BKN007 OVC018 23/22 A3025 RMK AO2 T02280217
KASD 220453Z AUTO 15008KT 8SM SCT007 OVC019 23/22 A3025 RMK AO2 SLP244 T02280217
KASD 220353Z AUTO 15006KT 8SM SCT009 OVC021 23/22 A3025 RMK AO2 SLP244 T02280217
KASD 220044Z AUTO 15010KT 10SM OVC026 24/22 A3021 RMK AO2 T02390217
KASD 212353Z AUTO 16013KT 10SM FEW019 BKN035 OVC080 25/21 A3020 RMK AO2 RAB37E47 SLP227 P0000 60000 T02500211 10283 20250 53011
KASD 212318Z AUTO 16011G19KT 10SM SCT021 BKN030 OVC060 26/21 A3019 RMK AO2 T02560211
KASD 212253Z AUTO 16014G21KT 10SM OVC022 26/21 A3018 RMK AO2 SLP221 T02610211
KASD 212153Z AUTO 16014G22KT 10SM OVC026 27/21 A3018 RMK AO2 PK WND 18030/2059 SLP218 T02720211
KASD 212053Z AUTO 15014G29KT 10SM BKN026 OVC036 28/21 A3017 RMK AO2 PK WND 17029/2049 SLP216 T02780206 56022
KASD 211953Z AUTO 16019G26KT 10SM BKN025 OVC032 28/21 A3018 RMK AO2 PK WND 17026/1930 SLP218 T02780211
KASD 211853Z AUTO 15016G22KT 10SM BKN024 OVC041 28/21 A3020 RMK AO2 SLP226 T02780211
KASD 211753Z AUTO 17015G22KT 10SM BKN023 BKN027 OVC033 27/21 A3023 RMK AO2 SLP238 T02720211 10272 20222 58003
KASD 211653Z AUTO 17013G18KT 10SM BKN022 OVC029 26/21 A3026 RMK AO2 SLP246 T02610211
KASD 211553Z AUTO 15013G20KT 10SM BKN016 OVC024 26/21 A3025 RMK AO2 SLP243 T02560211
KASD 211535Z AUTO 16012KT 10SM BKN015 OVC024 26/22 A3025 RMK AO2 T02560217
KASD 211517Z AUTO 15011G20KT 10SM BKN014 OVC024 25/21 A3025 RMK AO2 T02500211
KASD 211453Z AUTO 14012G22KT 10SM SCT013 OVC022 24/22 A3024 RMK AO2 SLP241 T02440217 53008
KASD 211417Z AUTO 15009KT 10SM SCT009 OVC020 23/22 A3023 RMK AO2 T02330217
KASD 211353Z AUTO 14009KT 10SM BKN009 OVC021 23/22 A3023 RMK AO2 SLP236 T02330217
KASD 211253Z AUTO 14009KT 8SM BKN006 BKN010 OVC018 22/21 A3022 RMK AO2 SLP233 T02220211
KASD 211250Z AUTO 14008KT 8SM BKN006 BKN010 OVC018 22/21 A3022 RMK AO2
KASD 211228Z AUTO 15007KT 9SM SCT007 OVC019 22/21 A3022 RMK AO2 T02220211
KASD 210753Z AUTO 14006KT 8SM BKN007 OVC017 22/21 A3019 RMK AO2 SLP224 T02220211
KASD 210733Z AUTO 14005KT 9SM BKN007 OVC017 22/21 A3020 RMK AO2 T02220211
KASD 210653Z AUTO 13005KT 9SM FEW009 OVC019 22/21 A3020 RMK AO2 SLP227 T02170211
KASD 210640Z AUTO 14005KT 10SM FEW008 OVC020 22/21 A3020 RMK AO2 T02170206
KASD 210553Z AUTO 15005KT 10SM SCT018 BKN027 OVC036 22/21 A3020 RMK AO2 SLP227 T02220206 10233 20217 402720200 53003